Time;durP1;ratioP1;P1;durP2;ratioP2;P2;SDS_P1;SDS_P2;PMS_P1;PMS_P2;Temp;Humidity;BMP_temperature;BMP_pressure;BME280_temperature;BME280_humidity;BME280_pressure;Samples;Min_cycle;Max_cycle;Signal;HPM_P1;HPM_P2
2022/04/25 00:02:12;;;;;;;7.40;4.75;;;;;;;;;;5055900;28;20040;-82
2022/04/25 00:04:37;;;;;;;11.00;4.75;;;;;;;;;;5054394;28;20099;-82
2022/04/25 00:07:03;;;;;;;10.93;5.20;;;;;;;;;;5055454;28;20025;-82
2022/04/25 00:09:28;;;;;;;9.35;5.10;;;;;;;;;;5054634;28;20435;-82
2022/04/25 00:11:54;;;;;;;10.07;5.13;;;;;;;;;;5054479;28;20025;-81
2022/04/25 00:14:19;;;;;;;13.40;5.15;;;;;;;;;;5054241;28;20025;-81
2022/04/25 00:16:45;;;;;;;8.23;4.47;;;;;;;;;;5060767;28;20035;-79
2022/04/25 00:19:10;;;;;;;9.43;4.40;;;;;;;;;;5064687;28;20394;-81
2022/04/25 00:21:36;;;;;;;7.93;4.82;;;;;;;;;;5037391;28;20029;-82
2022/04/25 00:24:01;;;;;;;6.97;4.25;;;;;;;;;;5037338;28;20474;-81
2022/04/25 00:26:27;;;;;;;5.38;3.83;;;;;;;;;;5053832;28;20366;-81
2022/04/25 00:28:52;;;;;;;8.60;4.00;;;;;;;;;;5054874;28;20434;-81
2022/04/25 00:31:18;;;;;;;8.25;4.13;;;;;;;;;;5037291;28;20076;-80
2022/04/25 00:33:43;;;;;;;11.80;4.10;;;;;;;;;;5055493;28;20037;-81
2022/04/25 00:36:09;;;;;;;6.90;4.00;;;;;;;;;;5054896;28;20505;-80
2022/04/25 00:38:35;;;;;;;7.28;3.92;;;;;;;;;;5059499;28;20032;-80
2022/04/25 00:41:00;;;;;;;5.43;3.78;;;;;;;;;;5055287;28;20358;-81
2022/04/25 00:43:26;;;;;;;6.75;3.92;;;;;;;;;;5055065;28;20045;-81
2022/04/25 00:45:51;;;;;;;5.47;4.18;;;;;;;;;;5054861;28;20431;-80
2022/04/25 00:48:16;;;;;;;8.18;3.97;;;;;;;;;;5054799;28;20056;-81
2022/04/25 00:50:42;;;;;;;5.53;4.10;;;;;;;;;;5054767;28;20112;-80
2022/04/25 00:53:08;;;;;;;13.30;4.57;;;;;;;;;;5054944;28;20039;-80
2022/04/25 00:55:33;;;;;;;6.50;3.78;;;;;;;;;;5037001;28;20036;-80
2022/04/25 00:57:59;;;;;;;11.38;4.07;;;;;;;;;;5057184;28;20037;-80
2022/04/25 01:00:24;;;;;;;8.60;4.22;;;;;;;;;;5054419;28;20033;-80
2022/04/25 01:02:50;;;;;;;8.88;4.68;;;;;;;;;;5053389;28;20028;-81
2022/04/25 01:05:15;;;;;;;5.60;4.18;;;;;;;;;;5053016;28;20048;-81
2022/04/25 01:07:41;;;;;;;4.93;4.03;;;;;;;;;;5053271;28;20052;-80
2022/04/25 01:10:08;;;;;;;8.90;4.03;;;;;;;;;;5054150;28;20120;-80
2022/04/25 01:12:33;;;;;;;11.13;4.03;;;;;;;;;;5053664;28;20115;-80
2022/04/25 01:15:06;;;;;;;6.20;4.00;;;;;;;;;;5054378;28;20435;-81
2022/04/25 01:17:31;;;;;;;6.75;3.88;;;;;;;;;;5054212;28;20024;-80
2022/04/25 01:19:57;;;;;;;5.70;4.10;;;;;;;;;;5061250;28;20040;-81
2022/04/25 01:22:42;;;;;;;7.75;4.28;;;;;;;;;;5053274;28;20052;-80
2022/04/25 01:27:52;;;;;;;4.75;3.70;;;;;;;;;;5054390;28;20036;-80
2022/04/25 01:30:18;;;;;;;5.32;3.88;;;;;;;;;;5054338;28;20442;-80
2022/04/25 01:32:43;;;;;;;5.93;3.72;;;;;;;;;;5053028;28;20033;-80
2022/04/25 01:35:09;;;;;;;6.22;3.47;;;;;;;;;;5054173;28;20033;-80
2022/04/25 01:37:34;;;;;;;5.82;3.50;;;;;;;;;;5053032;28;20029;-80
2022/04/25 01:40:00;;;;;;;8.00;3.90;;;;;;;;;;5057418;28;20389;-79
2022/04/25 01:42:26;;;;;;;5.32;3.90;;;;;;;;;;5054463;28;20103;-80
2022/04/25 01:44:51;;;;;;;7.57;3.88;;;;;;;;;;5054321;28;20044;-81
2022/04/25 01:47:17;;;;;;;6.68;4.18;;;;;;;;;;5054121;28;20033;-79
2022/04/25 01:49:43;;;;;;;7.53;4.20;;;;;;;;;;5054393;28;20033;-80
2022/04/25 01:52:14;;;;;;;8.95;4.10;;;;;;;;;;5053814;28;20112;-80
2022/04/25 01:54:39;;;;;;;9.88;3.90;;;;;;;;;;5053672;28;20457;-78
2022/04/25 01:57:05;;;;;;;7.43;4.50;;;;;;;;;;5072600;28;20084;-80
2022/04/25 01:59:33;;;;;;;6.65;4.28;;;;;;;;;;5073362;28;20044;-79
2022/04/25 02:02:00;;;;;;;7.57;4.07;;;;;;;;;;5057662;28;20044;-80
2022/04/25 02:04:25;;;;;;;7.15;4.18;;;;;;;;;;5057627;28;20033;-80
2022/04/25 02:06:51;;;;;;;11.98;4.13;;;;;;;;;;5074456;28;20033;-81
2022/04/25 02:09:17;;;;;;;8.13;4.15;;;;;;;;;;5039331;28;20029;-81
2022/04/25 02:11:43;;;;;;;4.95;3.97;;;;;;;;;;5058122;28;20354;-81
2022/04/25 02:14:08;;;;;;;6.90;4.00;;;;;;;;;;5056532;28;20037;-80
2022/04/25 02:16:34;;;;;;;7.30;3.85;;;;;;;;;;5058913;28;20442;-80
2022/04/25 02:18:59;;;;;;;5.40;3.90;;;;;;;;;;5040969;28;20029;-80
2022/04/25 02:21:25;;;;;;;5.88;4.40;;;;;;;;;;5027755;28;20032;-80
2022/04/25 02:23:50;;;;;;;7.97;4.60;;;;;;;;;;5057293;28;20096;-80
2022/04/25 02:26:16;;;;;;;8.57;4.95;;;;;;;;;;5057778;28;20111;-80
2022/04/25 02:28:41;;;;;;;9.02;4.32;;;;;;;;;;5039713;28;20025;-80
2022/04/25 02:31:07;;;;;;;8.93;4.10;;;;;;;;;;5040198;28;20032;-80
2022/04/25 02:33:33;;;;;;;5.68;3.97;;;;;;;;;;5039586;28;20442;-79
2022/04/25 02:35:59;;;;;;;5.50;4.30;;;;;;;;;;5057440;28;20033;-80
2022/04/25 02:38:25;;;;;;;7.15;4.43;;;;;;;;;;5039093;28;20029;-80
2022/04/25 02:41:04;;;;;;;8.23;4.20;;;;;;;;;;5043752;28;20029;-81
2022/04/25 02:43:43;;;;;;;6.38;4.20;;;;;;;;;;5027542;28;20082;-81
2022/04/25 02:46:12;;;;;;;7.78;4.15;;;;;;;;;;5057361;28;20037;-81
2022/04/25 02:48:39;;;;;;;5.55;3.90;;;;;;;;;;5006440;28;20042;-80
2022/04/25 02:51:05;;;;;;;6.82;4.20;;;;;;;;;;5022796;28;20029;-80
2022/04/25 02:53:31;;;;;;;5.50;3.92;;;;;;;;;;5022521;28;20033;-81
2022/04/25 02:55:56;;;;;;;7.22;3.92;;;;;;;;;;5022695;28;20055;-79
2022/04/25 02:58:22;;;;;;;7.22;3.97;;;;;;;;;;5057020;28;20060;-80
2022/04/25 03:00:48;;;;;;;7.53;3.90;;;;;;;;;;5040500;28;20033;-78
2022/04/25 03:03:14;;;;;;;6.43;4.03;;;;;;;;;;5039800;28;20040;-80
2022/04/25 03:05:42;;;;;;;8.65;3.63;;;;;;;;;;5049061;28;20094;-80
2022/04/25 03:08:08;;;;;;;7.70;4.03;;;;;;;;;;5022770;28;20032;-80
2022/04/25 03:10:33;;;;;;;7.22;4.30;;;;;;;;;;5055513;28;20017;-80
2022/04/25 03:13:00;;;;;;;6.90;4.07;;;;;;;;;;5056672;28;20457;-80
2022/04/25 03:15:26;;;;;;;6.90;4.10;;;;;;;;;;5038687;28;20123;-81
2022/04/25 03:17:51;;;;;;;6.55;4.22;;;;;;;;;;5055557;28;20435;-80
2022/04/25 03:20:18;;;;;;;8.23;5.40;;;;;;;;;;5038878;28;20029;-80
2022/04/25 03:22:44;;;;;;;9.60;5.65;;;;;;;;;;5057642;28;20021;-80
2022/04/25 03:25:10;;;;;;;9.18;6.30;;;;;;;;;;5056420;28;20537;-80
2022/04/25 03:27:35;;;;;;;11.68;7.00;;;;;;;;;;5022418;28;20119;-80
2022/04/25 03:30:01;;;;;;;10.85;6.85;;;;;;;;;;5038473;28;20033;-80
2022/04/25 03:32:26;;;;;;;9.50;6.82;;;;;;;;;;5056495;28;20033;-80
2022/04/25 03:34:52;;;;;;;8.15;6.28;;;;;;;;;;5056182;28;20037;-80
2022/04/25 03:37:17;;;;;;;14.25;6.90;;;;;;;;;;5038015;28;20090;-80
2022/04/25 03:39:43;;;;;;;13.80;6.55;;;;;;;;;;5056446;28;20029;-80
2022/04/25 03:42:09;;;;;;;11.55;6.63;;;;;;;;;;5056209;28;20430;-79
2022/04/25 03:44:34;;;;;;;12.88;6.30;;;;;;;;;;5056698;28;20032;-79
2022/04/25 03:46:59;;;;;;;9.13;5.90;;;;;;;;;;5038439;28;20051;-80
2022/04/25 03:49:25;;;;;;;10.70;6.30;;;;;;;;;;5022157;28;20341;-80
2022/04/25 03:51:51;;;;;;;11.63;6.28;;;;;;;;;;5055675;28;20032;-80
2022/04/25 03:57:09;;;;;;;9.13;6.50;;;;;;;;;;5054954;28;20412;-80
2022/04/25 03:57:10;;;;;;;9.40;6.32;;;;;;;;;;5054760;28;20025;-79
2022/04/25 03:59:36;;;;;;;10.35;5.75;;;;;;;;;;5039304;28;20017;-79
2022/04/25 04:02:02;;;;;;;14.13;6.43;;;;;;;;;;5055740;28;20024;-80
2022/04/25 04:04:27;;;;;;;10.25;6.10;;;;;;;;;;5055854;28;20049;-79
2022/04/25 04:06:53;;;;;;;11.50;6.82;;;;;;;;;;5055637;28;20064;-80
2022/04/25 04:10:00;;;;;;;8.90;6.00;;;;;;;;;;5054574;28;20029;-80
2022/04/25 04:12:07;;;;;;;9.25;6.07;;;;;;;;;;5043917;28;20059;-80
2022/04/25 04:14:32;;;;;;;8.65;6.22;;;;;;;;;;5055500;28;20459;-80
2022/04/25 04:16:58;;;;;;;8.07;5.85;;;;;;;;;;5037560;28;20083;-80
2022/04/25 04:19:24;;;;;;;9.05;6.05;;;;;;;;;;5037383;28;20040;-80
2022/04/25 04:21:50;;;;;;;9.48;6.05;;;;;;;;;;5054148;28;20029;-80
2022/04/25 04:24:15;;;;;;;9.90;6.10;;;;;;;;;;5040120;28;20037;-80
2022/04/25 04:26:42;;;;;;;9.43;6.30;;;;;;;;;;5056471;28;20021;-80
2022/04/25 04:29:08;;;;;;;13.23;5.88;;;;;;;;;;5055132;28;20028;-79
2022/04/25 04:31:33;;;;;;;8.65;5.80;;;;;;;;;;5054502;28;20029;-80
2022/04/25 04:33:59;;;;;;;14.00;6.22;;;;;;;;;;5054823;28;20025;-80
2022/04/25 04:36:26;;;;;;;9.20;6.07;;;;;;;;;;5055010;28;20434;-79
2022/04/25 04:38:51;;;;;;;10.70;5.93;;;;;;;;;;5054004;28;20033;-80
2022/04/25 04:41:17;;;;;;;7.95;5.38;;;;;;;;;;5053821;28;20158;-80
2022/04/25 04:43:42;;;;;;;8.30;4.85;;;;;;;;;;5037525;28;20039;-79
2022/04/25 04:46:08;;;;;;;9.00;4.78;;;;;;;;;;5040901;28;20111;-80
2022/04/25 04:48:33;;;;;;;8.10;4.82;;;;;;;;;;5053361;28;20522;-80
2022/04/25 04:51:00;;;;;;;5.63;4.30;;;;;;;;;;5053579;28;20056;-80
2022/04/25 04:53:25;;;;;;;10.88;5.32;;;;;;;;;;5055015;28;20430;-80
2022/04/25 04:55:52;;;;;;;8.10;5.30;;;;;;;;;;5054598;28;20021;-80
2022/04/25 04:58:20;;;;;;;8.68;5.15;;;;;;;;;;5054578;28;20038;-80
2022/04/25 05:00:47;;;;;;;9.73;5.30;;;;;;;;;;5053363;28;20147;-80
2022/04/25 05:03:15;;;;;;;7.15;5.18;;;;;;;;;;5054360;28;20033;-80
2022/04/25 05:05:42;;;;;;;8.88;5.20;;;;;;;;;;5012689;28;20107;-80
2022/04/25 05:08:08;;;;;;;6.32;5.05;;;;;;;;;;5036764;28;20433;-80
2022/04/25 05:10:33;;;;;;;7.10;5.35;;;;;;;;;;5037017;28;20075;-80
2022/04/25 05:12:59;;;;;;;7.60;4.90;;;;;;;;;;5036533;28;20025;-80
2022/04/25 05:15:24;;;;;;;9.30;5.20;;;;;;;;;;5020289;28;20123;-80
2022/04/25 05:17:52;;;;;;;14.98;6.70;;;;;;;;;;5054142;28;20075;-80
2022/04/25 05:20:19;;;;;;;11.02;5.43;;;;;;;;;;5036455;28;20435;-81
2022/04/25 05:22:45;;;;;;;10.13;5.40;;;;;;;;;;5036624;28;20078;-80
2022/04/25 05:25:15;;;;;;;7.90;5.18;;;;;;;;;;5020250;28;20025;-80
2022/04/25 05:27:45;;;;;;;9.23;4.97;;;;;;;;;;5020638;28;20036;-80
2022/04/25 05:30:12;;;;;;;8.57;4.78;;;;;;;;;;5004471;28;20469;-80
2022/04/25 05:32:48;;;;;;;11.98;4.40;;;;;;;;;;5035973;28;20431;-81
2022/04/25 05:35:14;;;;;;;10.30;5.00;;;;;;;;;;5036274;28;20033;-80
2022/04/25 05:37:40;;;;;;;10.05;4.78;;;;;;;;;;5054503;28;20037;-80
2022/04/25 05:40:06;;;;;;;7.95;4.22;;;;;;;;;;5036403;28;20416;-81
2022/04/25 05:42:32;;;;;;;6.03;4.43;;;;;;;;;;5053889;28;20033;-81
2022/04/25 05:44:59;;;;;;;9.10;5.00;;;;;;;;;;5035300;28;20029;-81
2022/04/25 05:47:24;;;;;;;7.90;4.03;;;;;;;;;;5037260;28;20025;-81
2022/04/25 05:52:34;;;;;;;6.47;3.95;;;;;;;;;;5038926;28;20044;-82
2022/04/25 05:55:00;;;;;;;9.93;4.07;;;;;;;;;;5036210;28;20033;-81
2022/04/25 05:57:25;;;;;;;8.32;4.25;;;;;;;;;;5019871;28;20435;-81
2022/04/25 05:59:51;;;;;;;8.00;3.95;;;;;;;;;;5036550;28;20036;-81
2022/04/25 06:02:17;;;;;;;8.48;4.05;;;;;;;;;;5035883;28;20102;-81
2022/04/25 06:04:43;;;;;;;8.88;3.70;;;;;;;;;;5054174;28;20147;-81
2022/04/25 06:07:08;;;;;;;5.55;3.45;;;;;;;;;;5036787;28;20068;-80
2022/04/25 06:09:34;;;;;;;8.27;3.50;;;;;;;;;;5036171;28;20032;-81
2022/04/25 06:12:02;;;;;;;9.32;3.78;;;;;;;;;;5036099;28;20422;-81
2022/04/25 06:14:28;;;;;;;9.68;4.50;;;;;;;;;;5053692;28;20458;-81
2022/04/25 06:16:53;;;;;;;7.38;4.10;;;;;;;;;;5053329;28;20562;-80
2022/04/25 06:19:19;;;;;;;6.82;3.92;;;;;;;;;;5035825;28;20052;-81
2022/04/25 06:21:44;;;;;;;8.10;4.40;;;;;;;;;;5053871;28;20441;-81
2022/04/25 06:24:10;;;;;;;11.00;3.65;;;;;;;;;;5036163;28;20078;-82
2022/04/25 06:26:36;;;;;;;7.32;2.90;;;;;;;;;;5021760;28;20106;-81
2022/04/25 06:29:02;;;;;;;4.82;2.05;;;;;;;;;;5041498;28;20051;-81
2022/04/25 06:31:27;;;;;;;3.85;1.80;;;;;;;;;;5019703;28;20036;-83
2022/04/25 06:33:53;;;;;;;9.05;1.88;;;;;;;;;;5035967;28;20386;-83
2022/04/25 06:36:18;;;;;;;4.13;1.40;;;;;;;;;;5053584;28;20033;-84
2022/04/25 06:38:44;;;;;;;7.25;1.30;;;;;;;;;;5053560;28;20505;-83
2022/04/25 06:41:09;;;;;;;6.10;1.90;;;;;;;;;;5035924;28;20470;-84
2022/04/25 06:43:36;;;;;;;4.25;1.77;;;;;;;;;;5053743;28;20409;-83
2022/04/25 06:46:02;;;;;;;4.38;1.50;;;;;;;;;;5019526;28;20444;-86
2022/04/25 06:48:27;;;;;;;3.97;1.25;;;;;;;;;;5065480;28;20016;-83
2022/04/25 06:50:55;;;;;;;4.45;1.60;;;;;;;;;;5036777;28;20466;-83
2022/04/25 06:53:21;;;;;;;12.02;1.67;;;;;;;;;;5020034;28;20037;-83
2022/04/25 06:55:47;;;;;;;5.30;1.40;;;;;;;;;;5021944;28;20040;-84
2022/04/25 06:58:12;;;;;;;2.55;1.13;;;;;;;;;;5022548;28;20064;-83
2022/04/25 07:00:38;;;;;;;4.82;1.30;;;;;;;;;;5006337;28;20458;-82
2022/04/25 07:03:04;;;;;;;5.20;1.45;;;;;;;;;;5056923;28;20025;-83
2022/04/25 07:05:30;;;;;;;6.15;1.50;;;;;;;;;;5049920;28;20045;-81
2022/04/25 07:07:56;;;;;;;5.03;1.38;;;;;;;;;;5059755;28;20061;-82
2022/04/25 07:10:21;;;;;;;5.88;1.30;;;;;;;;;;5056216;28;20107;-84
2022/04/25 07:12:47;;;;;;;2.58;1.00;;;;;;;;;;5056711;28;20025;-85
2022/04/25 07:15:13;;;;;;;3.75;1.38;;;;;;;;;;5055420;28;20041;-86
2022/04/25 07:17:38;;;;;;;4.35;1.60;;;;;;;;;;5056717;28;20017;-86
2022/04/25 07:20:04;;;;;;;12.00;1.80;;;;;;;;;;5055458;28;20076;-84
2022/04/25 07:30:41;;;;;;;7.90;1.60;;;;;;;;;;5056538;28;20044;-85
2022/04/25 07:33:07;;;;;;;10.05;2.08;;;;;;;;;;5022200;28;20029;-84
2022/04/25 07:35:34;;;;;;;2.72;1.48;;;;;;;;;;5055336;28;20033;-84
2022/04/25 07:38:00;;;;;;;9.48;1.95;;;;;;;;;;5056521;28;20520;-87
2022/04/25 07:40:25;;;;;;;7.30;1.98;;;;;;;;;;5056592;28;20033;-84
2022/04/25 07:42:51;;;;;;;8.05;1.55;;;;;;;;;;5054918;28;20427;-84
2022/04/25 07:45:16;;;;;;;7.75;1.63;;;;;;;;;;5055009;28;20458;-85
2022/04/25 07:47:45;;;;;;;5.72;1.48;;;;;;;;;;5067293;28;20531;-83
2022/04/25 07:50:11;;;;;;;8.77;1.73;;;;;;;;;;5040356;28;20032;-85
2022/04/25 07:52:36;;;;;;;7.90;1.90;;;;;;;;;;5038596;28;20072;-84
2022/04/25 07:55:03;;;;;;;7.40;1.70;;;;;;;;;;5021984;28;20068;-84
2022/04/25 07:57:28;;;;;;;6.85;2.00;;;;;;;;;;5037974;28;20033;-87
2022/04/25 07:59:54;;;;;;;8.80;1.60;;;;;;;;;;5021538;28;20041;-83
2022/04/25 08:02:20;;;;;;;8.57;1.98;;;;;;;;;;5038131;28;20033;-84
2022/04/25 08:04:46;;;;;;;4.35;1.60;;;;;;;;;;5055633;28;20079;-86
2022/04/25 08:07:12;;;;;;;4.15;1.58;;;;;;;;;;5025698;28;20029;-85
2022/04/25 08:09:38;;;;;;;10.45;1.70;;;;;;;;;;5028367;28;20017;-85
2022/04/25 08:20:16;;;;;;;5.57;1.50;;;;;;;;;;5055544;28;20024;-85
2022/04/25 08:22:41;;;;;;;9.77;1.67;;;;;;;;;;5021482;28;20021;-84
2022/04/25 08:25:08;;;;;;;4.93;1.40;;;;;;;;;;5055221;28;20036;-87
2022/04/25 08:27:34;;;;;;;8.82;1.30;;;;;;;;;;5038665;28;20064;-83
2022/04/25 08:29:59;;;;;;;9.23;1.45;;;;;;;;;;5061967;28;20025;-83
2022/04/25 08:32:25;;;;;;;11.32;1.50;;;;;;;;;;5005023;28;20025;-84
2022/04/25 08:34:51;;;;;;;5.20;1.33;;;;;;;;;;5038604;28;20024;-83
2022/04/25 08:37:16;;;;;;;5.35;1.48;;;;;;;;;;5038340;28;20021;-85
2022/04/25 08:39:42;;;;;;;4.43;1.20;;;;;;;;;;5039019;28;20033;-85
2022/04/25 08:42:09;;;;;;;8.65;1.38;;;;;;;;;;5007377;28;20035;-85
2022/04/25 08:44:34;;;;;;;2.75;1.35;;;;;;;;;;5038241;28;20033;-84
2022/04/25 08:47:00;;;;;;;6.20;1.73;;;;;;;;;;5022005;28;20392;-85
2022/04/25 08:49:25;;;;;;;5.18;1.15;;;;;;;;;;5043217;28;20049;-84
2022/04/25 08:51:58;;;;;;;6.13;1.23;;;;;;;;;;5039466;28;20025;-83
2022/04/25 08:54:30;;;;;;;7.72;1.70;;;;;;;;;;5021204;28;20064;-84
2022/04/25 08:56:55;;;;;;;4.78;1.63;;;;;;;;;;5054746;28;20021;-84
2022/04/25 08:59:21;;;;;;;7.93;1.38;;;;;;;;;;5036575;28;20033;-85
2022/04/25 09:01:46;;;;;;;5.85;1.40;;;;;;;;;;5004458;28;20445;-86
2022/04/25 09:04:12;;;;;;;4.88;1.30;;;;;;;;;;5020355;28;20036;-86
2022/04/25 09:06:37;;;;;;;2.53;0.95;;;;;;;;;;5039113;28;20068;-86
2022/04/25 09:09:03;;;;;;;4.78;1.30;;;;;;;;;;5029131;28;20032;-84
2022/04/25 09:14:13;;;;;;;4.18;1.20;;;;;;;;;;5039608;28;20027;-85
2022/04/25 09:16:39;;;;;;;3.70;1.30;;;;;;;;;;5020457;28;20033;-85
2022/04/25 09:19:04;;;;;;;2.55;1.25;;;;;;;;;;5003800;28;20043;-83
2022/04/25 09:21:30;;;;;;;4.97;1.42;;;;;;;;;;5004032;28;20381;-84
2022/04/25 09:23:56;;;;;;;8.00;1.50;;;;;;;;;;5036915;28;20047;-85
2022/04/25 09:26:24;;;;;;;2.38;1.00;;;;;;;;;;5020600;28;20090;-84
2022/04/25 09:28:51;;;;;;;3.55;1.00;;;;;;;;;;5043707;28;20053;-83
2022/04/25 09:31:17;;;;;;;3.15;0.90;;;;;;;;;;5027034;28;20124;-84
2022/04/25 09:33:43;;;;;;;2.72;1.05;;;;;;;;;;5054684;28;20029;-84
2022/04/25 09:36:08;;;;;;;5.30;1.13;;;;;;;;;;5036715;28;20029;-84
2022/04/25 09:38:35;;;;;;;7.15;1.30;;;;;;;;;;5020242;28;20032;-84
2022/04/25 09:41:01;;;;;;;3.88;1.33;;;;;;;;;;5020441;28;20033;-84
2022/04/25 09:43:30;;;;;;;2.95;1.30;;;;;;;;;;5036389;28;20032;-85
2022/04/25 09:46:03;;;;;;;2.55;1.02;;;;;;;;;;5037149;28;20037;-83
2022/04/25 09:48:29;;;;;;;5.93;1.02;;;;;;;;;;5022453;28;20032;-85
2022/04/25 09:51:07;;;;;;;4.35;1.20;;;;;;;;;;5044553;28;20119;-84
2022/04/25 09:53:52;;;;;;;3.30;1.10;;;;;;;;;;5036166;28;20037;-85
2022/04/25 09:56:27;;;;;;;7.22;1.27;;;;;;;;;;5020503;28;20562;-84
2022/04/25 09:59:06;;;;;;;5.28;0.90;;;;;;;;;;5020745;28;20056;-83
2022/04/25 10:01:35;;;;;;;1.60;0.90;;;;;;;;;;5036804;28;20053;-83
2022/04/25 10:04:01;;;;;;;;;;;;;;;;;;5021488;28;20068;-83
2022/04/25 10:06:35;;;;;;;3.53;1.42;;;;;;;;;;5036357;28;20025;-84
2022/04/25 10:09:02;;;;;;;4.07;1.45;;;;;;;;;;5039501;28;20098;-85
2022/04/25 10:11:32;;;;;;;4.13;1.17;;;;;;;;;;5045599;28;20359;-82
2022/04/25 10:13:57;;;;;;;3.38;1.10;;;;;;;;;;5036600;28;20029;-84
2022/04/25 10:16:23;;;;;;;4.57;1.40;;;;;;;;;;5019857;28;20068;-84
2022/04/25 10:18:48;;;;;;;6.75;1.33;;;;;;;;;;5036259;28;20036;-84
2022/04/25 10:21:14;;;;;;;4.60;2.00;;;;;;;;;;5003494;28;20029;-86
2022/04/25 10:23:40;;;;;;;11.70;2.78;;;;;;;;;;5010663;28;20040;-84
2022/04/25 10:26:06;;;;;;;7.68;2.65;;;;;;;;;;5006452;28;20037;-81
2022/04/25 10:28:48;;;;;;;5.70;2.20;;;;;;;;;;5035964;28;20032;-85
2022/04/25 10:31:20;;;;;;;4.43;1.20;;;;;;;;;;5031918;28;20040;-84
2022/04/25 10:33:50;;;;;;;4.38;1.00;;;;;;;;;;5023700;28;20024;-82
2022/04/25 10:36:51;;;;;;;5.35;0.70;;;;;;;;;;5023154;28;20028;-86
2022/04/25 10:39:31;;;;;;;4.72;0.70;;;;;;;;;;5015636;28;20030;-84
2022/04/25 10:44:42;;;;;;;3.38;0.93;;;;;;;;;;5057566;28;20070;-83
2022/04/25 10:47:11;;;;;;;1.80;0.77;;;;;;;;;;5039699;28;20025;-83
2022/04/25 10:49:58;;;;;;;4.35;1.10;;;;;;;;;;5043755;28;20029;-83
2022/04/25 10:55:14;;;;;;;1.55;0.80;;;;;;;;;;5057306;28;20120;-83
2022/04/25 10:58:01;;;;;;;3.65;0.80;;;;;;;;;;5039373;28;20027;-83
2022/04/25 11:00:36;;;;;;;7.55;0.95;;;;;;;;;;5057346;28;20032;-85
2022/04/25 11:03:05;;;;;;;1.25;0.60;;;;;;;;;;5057025;28;20128;-86
2022/04/25 11:05:31;;;;;;;5.10;0.75;;;;;;;;;;5048030;28;20107;-83
2022/04/25 11:08:18;;;;;;;4.55;0.60;;;;;;;;;;5056994;28;20017;-84
2022/04/25 11:10:56;;;;;;;2.85;0.70;;;;;;;;;;5064918;28;20009;-84
2022/04/25 11:13:23;;;;;;;3.08;0.85;;;;;;;;;;5056520;28;20037;-84
2022/04/25 11:15:58;;;;;;;2.22;0.60;;;;;;;;;;5023128;28;20047;-83
2022/04/25 11:18:33;;;;;;;1.40;0.75;;;;;;;;;;5055476;28;20507;-85
2022/04/25 11:21:09;;;;;;;4.00;1.02;;;;;;;;;;5040006;28;20021;-83
2022/04/25 11:23:44;;;;;;;2.13;0.80;;;;;;;;;;5022548;28;20060;-83
2022/04/25 11:26:18;;;;;;;0.90;0.70;;;;;;;;;;5055642;28;20043;-84
2022/04/25 11:29:01;;;;;;;2.78;0.73;;;;;;;;;;5056513;28;20062;-84
2022/04/25 11:31:30;;;;;;;1.48;0.70;;;;;;;;;;5066000;28;20091;-85
2022/04/25 11:33:58;;;;;;;3.75;0.80;;;;;;;;;;5038865;28;20025;-80
2022/04/25 11:36:24;;;;;;;2.45;0.73;;;;;;;;;;5039022;28;20151;-84
2022/04/25 11:41:35;;;;;;;3.58;0.82;;;;;;;;;;5040115;28;20028;-85
2022/04/25 11:44:01;;;;;;;1.38;0.90;;;;;;;;;;5056254;28;20039;-82
2022/04/25 11:46:27;;;;;;;2.88;0.75;;;;;;;;;;5038376;28;20107;-85
2022/04/25 11:48:53;;;;;;;3.75;0.88;;;;;;;;;;5055335;28;20036;-82
2022/04/25 11:51:23;;;;;;;6.50;0.73;;;;;;;;;;5064032;28;20025;-82
2022/04/25 11:53:50;;;;;;;2.28;0.80;;;;;;;;;;5056853;28;20128;-85
2022/04/25 11:56:16;;;;;;;0.80;0.60;;;;;;;;;;5056465;28;20056;-83
2022/04/25 11:58:41;;;;;;;2.28;0.65;;;;;;;;;;5054915;28;20553;-84
2022/04/25 12:01:09;;;;;;;3.80;0.80;;;;;;;;;;5055227;28;20032;-86
2022/04/25 12:03:36;;;;;;;6.93;0.60;;;;;;;;;;5054315;28;20029;-83
2022/04/25 12:06:09;;;;;;;0.80;0.60;;;;;;;;;;5055585;28;20482;-86
2022/04/25 12:16:46;;;;;;;2.15;0.60;;;;;;;;;;5026648;28;20028;-84
2022/04/25 12:19:13;;;;;;;0.98;0.52;;;;;;;;;;5037567;28;20029;-84
2022/04/25 12:21:47;;;;;;;3.90;0.90;;;;;;;;;;5038007;28;20033;-85
2022/04/25 12:24:18;;;;;;;2.35;0.85;;;;;;;;;;5038694;28;20068;-83
2022/04/25 12:26:43;;;;;;;2.60;0.60;;;;;;;;;;5021247;28;20040;-82
2022/04/25 12:29:11;;;;;;;2.35;0.60;;;;;;;;;;5037545;28;20024;-84
2022/04/25 12:31:45;;;;;;;1.83;0.70;;;;;;;;;;5058128;28;20040;-83
2022/04/25 12:34:12;;;;;;;1.13;0.65;;;;;;;;;;5025109;28;20029;-82
2022/04/25 12:36:39;;;;;;;2.17;0.68;;;;;;;;;;5021519;28;20075;-86
2022/04/25 12:39:13;;;;;;;0.90;0.70;;;;;;;;;;5037752;28;20075;-84
2022/04/25 12:41:58;;;;;;;3.33;0.77;;;;;;;;;;5021757;28;20044;-84
2022/04/25 12:44:25;;;;;;;1.38;0.57;;;;;;;;;;5037672;28;20032;-81
2022/04/25 12:46:55;;;;;;;5.63;0.90;;;;;;;;;;5037294;28;20041;-83
2022/04/25 12:49:37;;;;;;;9.73;1.08;;;;;;;;;;5005580;28;20416;-82
2022/04/25 12:52:04;;;;;;;1.15;0.50;;;;;;;;;;5041971;28;20054;-82
2022/04/25 12:54:31;;;;;;;2.83;1.20;;;;;;;;;;5040456;28;20071;-84
2022/04/25 12:57:13;;;;;;;0.90;0.70;;;;;;;;;;5020698;28;20072;-85
2022/04/25 12:59:40;;;;;;;1.55;0.88;;;;;;;;;;5037216;28;20032;-81
2022/04/25 13:02:12;;;;;;;2.55;0.77;;;;;;;;;;5004118;28;20029;-86
2022/04/25 13:04:52;;;;;;;1.60;0.60;;;;;;;;;;5022959;28;20064;-81
2022/04/25 13:07:22;;;;;;;1.50;0.90;;;;;;;;;;5054623;28;20056;-81
2022/04/25 13:09:49;;;;;;;1.33;0.60;;;;;;;;;;5038102;28;20021;-82
2022/04/25 13:12:16;;;;;;;1.00;0.70;;;;;;;;;;5047071;28;20028;-84
2022/04/25 13:14:41;;;;;;;2.50;0.70;;;;;;;;;;5058933;28;20533;-85
2022/04/25 13:17:07;;;;;;;1.85;0.88;;;;;;;;;;5036790;28;20056;-83
2022/04/25 13:19:32;;;;;;;3.80;1.25;;;;;;;;;;5055471;28;20048;-84
2022/04/25 13:21:58;;;;;;;5.88;1.08;;;;;;;;;;5054441;28;20496;-85
2022/04/25 13:24:23;;;;;;;2.85;0.98;;;;;;;;;;5054630;28;20449;-83
2022/04/25 13:26:49;;;;;;;3.13;0.80;;;;;;;;;;5039403;28;20374;-82
2022/04/25 13:29:16;;;;;;;2.92;0.93;;;;;;;;;;5059220;28;20025;-82
2022/04/25 13:31:41;;;;;;;1.80;1.00;;;;;;;;;;5044392;28;20059;-83
2022/04/25 13:34:07;;;;;;;2.20;1.08;;;;;;;;;;5066933;28;20104;-80
2022/04/25 13:36:34;;;;;;;2.63;1.05;;;;;;;;;;5068433;28;20025;-82
2022/04/25 13:39:00;;;;;;;3.35;1.00;;;;;;;;;;5033070;28;20374;-82
2022/04/25 13:41:25;;;;;;;4.07;0.98;;;;;;;;;;5061159;28;20045;-83
2022/04/25 13:43:51;;;;;;;4.03;1.20;;;;;;;;;;5036465;28;20037;-83
2022/04/25 13:46:18;;;;;;;3.28;1.05;;;;;;;;;;5036471;28;20101;-82
2022/04/25 13:48:44;;;;;;;1.52;0.85;;;;;;;;;;5053000;28;20055;-82
2022/04/25 13:51:09;;;;;;;4.43;0.80;;;;;;;;;;5053733;28;20120;-81
2022/04/25 13:53:34;;;;;;;2.17;0.90;;;;;;;;;;5063769;28;20040;-81
2022/04/25 13:56:03;;;;;;;6.13;1.13;;;;;;;;;;5036063;28;20033;-82
2022/04/25 13:58:29;;;;;;;1.45;0.85;;;;;;;;;;5036933;28;20445;-83
2022/04/25 14:00:55;;;;;;;5.32;0.90;;;;;;;;;;5036105;28;20072;-82
2022/04/25 14:03:21;;;;;;;3.13;1.02;;;;;;;;;;5019587;28;20087;-83
2022/04/25 14:05:49;;;;;;;1.55;0.93;;;;;;;;;;5056126;28;20387;-82
2022/04/25 14:08:15;;;;;;;1.83;0.82;;;;;;;;;;5040430;28;20070;-83
2022/04/25 14:10:43;;;;;;;3.05;0.88;;;;;;;;;;5040110;28;20107;-83
2022/04/25 14:13:11;;;;;;;6.10;1.15;;;;;;;;;;5060552;28;20025;-81
2022/04/25 14:15:37;;;;;;;2.67;1.00;;;;;;;;;;5061904;28;20021;-83
2022/04/25 14:18:03;;;;;;;3.15;1.10;;;;;;;;;;5023301;28;20040;-83
2022/04/25 14:20:30;;;;;;;1.58;1.10;;;;;;;;;;5039942;28;20028;-82
2022/04/25 14:23:00;;;;;;;1.27;1.00;;;;;;;;;;5057563;28;20029;-83
2022/04/25 14:25:26;;;;;;;3.63;1.10;;;;;;;;;;5023899;28;20477;-83
2022/04/25 14:27:52;;;;;;;2.78;0.75;;;;;;;;;;5023519;28;20454;-84
2022/04/25 14:30:18;;;;;;;5.57;1.00;;;;;;;;;;5039866;28;20127;-82
2022/04/25 14:32:43;;;;;;;3.92;1.17;;;;;;;;;;5060062;28;20047;-84
2022/04/25 14:35:09;;;;;;;5.18;1.02;;;;;;;;;;5028958;28;20033;-83
2022/04/25 14:37:34;;;;;;;4.63;0.93;;;;;;;;;;5023151;28;20108;-82
2022/04/25 14:40:00;;;;;;;3.53;1.05;;;;;;;;;;5006945;28;20029;-84
2022/04/25 14:42:25;;;;;;;2.30;0.95;;;;;;;;;;5057027;28;20413;-83
2022/04/25 14:44:51;;;;;;;1.95;0.80;;;;;;;;;;5057007;28;20033;-85
2022/04/25 14:47:16;;;;;;;3.05;1.00;;;;;;;;;;5022950;28;20028;-83
2022/04/25 14:55:10;;;;;;;2.22;1.13;;;;;;;;;;5036259;28;20120;-83
2022/04/25 14:57:36;;;;;;;2.92;1.33;;;;;;;;;;5057096;28;20060;-82
2022/04/25 15:00:02;;;;;;;2.65;1.23;;;;;;;;;;5022550;28;20056;-83
2022/04/25 15:02:28;;;;;;;2.83;1.15;;;;;;;;;;5023337;28;20033;-83
2022/04/25 15:04:53;;;;;;;1.55;0.93;;;;;;;;;;5026330;28;20355;-84
2022/04/25 15:07:19;;;;;;;2.90;1.30;;;;;;;;;;5056822;28;20029;-84
2022/04/25 15:09:46;;;;;;;3.67;1.00;;;;;;;;;;5055970;28;20029;-83
2022/04/25 15:12:12;;;;;;;4.50;1.13;;;;;;;;;;5056754;28;20028;-83
2022/04/25 15:14:37;;;;;;;8.27;1.75;;;;;;;;;;5065519;28;20029;-82
2022/04/25 15:17:03;;;;;;;4.38;1.20;;;;;;;;;;5056581;28;20123;-81
2022/04/25 15:19:29;;;;;;;7.50;1.10;;;;;;;;;;5055865;28;20024;-83
2022/04/25 15:21:58;;;;;;;5.00;1.90;;;;;;;;;;5055332;28;20430;-81
2022/04/25 15:24:24;;;;;;;4.88;1.80;;;;;;;;;;5039126;28;20470;-84
2022/04/25 15:26:49;;;;;;;4.25;1.20;;;;;;;;;;5054978;28;20040;-84
2022/04/25 15:29:15;;;;;;;3.10;1.40;;;;;;;;;;5055305;28;20060;-85
2022/04/25 15:31:40;;;;;;;8.20;1.65;;;;;;;;;;5038622;28;20037;-84